• Join FlightAware (Why Join?)
  • Login
  • US Flag 
09:54AM EDT


 

Airport Tracker/Info


-or-


 

Live Flight TrackerFlight Track Log ✈ KAP320 ✈ 09-Apr-2012 ✈ KOGS - KALB

Flight Track Log - Related Links

Times and Time Zones

All times are in EDT time to prevent confusion due to time zone crossing. See the KAP320 flight status page for this flight to view local times or setup timezone preferences in your user account.

Time Position Orientation Groundspeed Altitude Reporting Facility
EDT Latitude Longitude Course Direction KTS MPH feet Rate Location/Type
05:16PM 44.6756 -75.3186 148° Southeast 149 171 4,400  Level Boston Center
05:17PM 44.6408 -75.2878 150° Southeast 144 166 5,100 660 Climbing Boston Center
05:18PM 44.6019 -75.2567 149° Southeast 154 177 5,800 600 Climbing Boston Center
05:19PM 44.5653 -75.2258 149° Southeast 160 184 6,400 600 Climbing Boston Center
05:20PM 44.5244 -75.1919 152° Southeast 160 184 7,100 600 Climbing Boston Center
05:21PM 44.4833 -75.1608 149° Southeast 160 184 7,700 600 Climbing Boston Center
05:22PM 44.4425 -75.1269 150° Southeast 160 184 8,300 540 Climbing Boston Center
05:23PM 44.3975 -75.0900 152° Southeast 171 197 8,800 360 Climbing Boston Center
05:24PM 44.3525 -75.0561 148° Southeast 182 209 9,100 120 Climbing Boston Center
05:25PM 44.3033 -75.0133 150° Southeast 194 223 9,100  Level Boston Center
05:26PM 44.2542 -74.9733 151° Southeast 199 229 9,100  Level Boston Center
05:27PM 44.2031 -74.9336 150° Southeast 204 235 9,100  Level Boston Center
05:28PM 44.1539 -74.8939 149° Southeast 204 235 9,100  Level Boston Center
05:29PM 44.1028 -74.8514 151° Southeast 204 235 9,100  Level Boston Center
05:30PM 44.0556 -74.8147 149° Southeast 204 235 9,100  Level Boston Center
05:31PM 44.0083 -74.7753 151° Southeast 204 235 9,100  Level Boston Center
05:32PM 43.9653 -74.7419 152° Southeast 204 235 9,100  Level Boston Center
05:33PM 43.9161 -74.7056 150° Southeast 199 229 9,100  Level Boston Center
05:35PM 43.8194 -74.6269 151° Southeast 199 229 9,100  Level Boston Center
05:36PM 43.7683 -74.5878 150° Southeast 199 229 9,100  Level Boston Center
05:37PM 43.7189 -74.5486 150° Southeast 199 229 9,100 -60 Level Boston Center
05:38PM 43.6697 -74.5097 150° Southeast 199 229 9,000 -60 Descending Boston Center
05:39PM 43.6203 -74.4706 149° Southeast 199 229 9,000  Level Boston Center
05:40PM 43.5731 -74.4317 152° Southeast 199 229 9,000  Level Boston Center
05:41PM 43.5236 -74.3958 150° Southeast 199 229 9,000  Level Boston Center
05:42PM 43.4742 -74.3569 152° Southeast 199 229 9,000  Level Boston Center
05:42PM 43.4331 -74.3272 151° Southeast 201 231 9,000  Level Boston Center
05:44PM 43.3756 -74.2825 149° Southeast 198 228 9,000 -60 Level Boston Center
05:45PM 43.3281 -74.2439 152° Southeast 203 234 8,900 -420 Descending Boston Center
05:46PM 43.2683 -74.1994 150° Southeast 206 237 8,200 -660 Descending Boston Center
05:47PM 43.2189 -74.1608 150° Southeast 226 260 7,600 -600 Descending Boston Center
05:48PM 43.1592 -74.1136 153° Southeast 221 254 7,000 -660 Descending Boston Center
05:49PM 43.1078 -74.0781 150° Southeast 220 253 6,300 -720 Descending Boston Center
05:50PM 43.0561 -74.0369 151° Southeast 217 250 5,700 -660 Descending Boston Center
05:51PM 43.0025 -73.9958 152° Southeast 214 246 5,000 -660 Descending Boston Center
05:52PM 42.9508 -73.9578 146° Southeast 211 243 4,400 -600 Descending Boston Center
05:53PM 42.9036 -73.9139 131° Southeast 211 243 3,900 -480 Descending Boston Center
05:54PM 42.8647 -73.8536 130° Southeast 210 242 3,500 -600 Descending Boston Center
05:55PM 42.8342 -73.8047 142° Southeast 198 228 2,700 -780 Descending Boston Center
05:56PM 42.7928 -73.7614 176° South 146 168 1,900 -780 Descending Boston Center
05:57PM 42.7575 -73.7578 176° South 124 143 1,100 -840 Descending Boston Center